Seamaster — ZMV7638 — position and weather

sailwx.info

Track history (hours):
 
Tides and Currents Weather Stations Pressure Air Temp Water Temp Dewpoint Dewpoint Depression Visibility Wind Speed Wind Dir Waves Ship Positions

Seamaster

Last reported at 2015-Sep-02 18:33 UTC. Time now 2015-Sep-02 18:58 UTC.
Position S 36°51' E 174°54'.

Length 44 m.

Type: Passenger vessel. MMSI: 512001027.

Date/timePositionNaut miles runAvg speedWind from/ knotsBaromVisibWave heightAir tempDewpointWater temp
2015-Sep-02 18:33S 36°51' E 174°54'3 2.5
2015-Sep-02 17:17S 36°50' E 174°57'1 0.1
2015-Sep-02 06:31S 36°50' E 174°56'2 1.6
2015-Sep-02 05:26S 36°50' E 174°58'4 2.3
2015-Sep-02 03:33S 36°51' E 174°53'3 1.3
2015-Sep-02 01:31S 36°50' E 174°56'3 2.4
2015-Sep-02 00:25S 36°52' E 174°54'4 1.7
2015-Sep-01 22:09S 36°50' E 174°58'4 3.9
2015-Sep-01 21:10S 36°52' E 174°54'1 0.8
2015-Sep-01 19:20S 36°51' E 174°54'0 0.3
2015-Sep-01 18:33S 36°51' E 174°54'3 2.7
2015-Sep-01 17:19S 36°50' E 174°58'1 0.1
2015-Sep-01 06:31S 36°50' E 174°56'2 1.8
2015-Sep-01 05:16S 36°50' E 174°59'5 2.7
2015-Sep-01 03:33S 36°51' E 174°53'3 1.4
2015-Sep-01 01:33S 36°50' E 174°57'3 2.5
2015-Sep-01 00:26S 36°52' E 174°54'4 2.0
2015-Aug-31 22:25S 36°50' E 174°58'4 3.5
2015-Aug-31 21:15S 36°51' E 174°54'0 0.1
2015-Aug-31 18:34S 36°52' E 174°54'3 0.2
2015-Aug-31 06:29S 36°50' E 174°56'1 0.9
2015-Aug-31 05:11S 36°50' E 174°57'3 2.1
2015-Aug-31 03:33S 36°51' E 174°54'1 0.6
2015-Aug-31 01:20S 36°50' E 174°53'2 2.3
2015-Aug-31 00:26S 36°52' E 174°54'3 0.6
2015-Aug-30 19:33S 36°50' E 174°56'3 2.8
2015-Aug-30 18:33S 36°52' E 174°54'5 3.9
2015-Aug-30 17:19S 36°50' E 174°59'5 0.4
2015-Aug-30 05:23S 36°52' E 174°54'2 1.2
2015-Aug-30 03:30S 36°50' E 174°56'2 2.2
2015-Aug-30 02:33S 36°51' E 174°53'1 0.7
2015-Aug-30 00:33S 36°50' E 174°53'2 2.0
2015-Aug-29 23:25S 36°52' E 174°54'3 1.6
2015-Aug-29 21:32S 36°50' E 174°57'3 3.2
2015-Aug-29 20:28S 36°53' E 174°54'2 0.8
2015-Aug-29 18:16S 36°51' E 174°54'2 0.1
2015-Aug-29 05:27S 36°53' E 174°54'2 0.8
2015-Aug-29 03:17S 36°51' E 174°54'2 2.3
2015-Aug-29 02:29S 36°53' E 174°54'6 4.9
2015-Aug-29 01:11S 36°49' E 175°00'6 9.3
2015-Aug-29 00:33S 36°50' E 174°53'2 2.1
2015-Aug-28 23:33S 36°52' E 174°54'3 1.5
2015-Aug-28 21:34S 36°50' E 174°57'3 2.9
2015-Aug-28 20:32S 36°52' E 174°54'3 1.4
2015-Aug-28 18:33S 36°50' E 174°57'1 0.0
2015-Aug-28 06:30S 36°50' E 174°56'3 2.8
2015-Aug-28 05:22S 36°50' E 174°60'6 3.2
2015-Aug-28 03:32S 36°53' E 174°54'3 1.4
2015-Aug-28 01:33S 36°50' E 174°56'2 1.8
2015-Aug-28 00:24S 36°52' E 174°54'6 3.0
2015-Aug-27 22:27S 36°49' E 175°00'6 4.5
2015-Aug-27 21:10S 36°52' E 174°54'5 7.6
2015-Aug-27 20:33S 36°49' E 174°59'1 1.1
2015-Aug-27 19:33S 36°50' E 174°58'4 3.5
2015-Aug-27 18:33S 36°52' E 174°54'5 3.5
2015-Aug-27 17:11S 36°50' E 174°59'3 0.3
2015-Aug-27 06:33S 36°50' E 174°55'3 2.2
2015-Aug-27 05:15S 36°50' E 174°59'5 2.8
2015-Aug-27 03:29S 36°53' E 174°54'2 0.8
2015-Aug-27 01:19S 36°51' E 174°54'2 2.2
2015-Aug-27 00:31S 36°53' E 174°54'5 2.3
2015-Aug-26 22:19S 36°50' E 174°59'5 4.2
2015-Aug-26 21:11S 36°52' E 174°54'5 7.5
2015-Aug-26 20:32S 36°49' E 174°59'5 3.7
2015-Aug-26 19:14S 36°51' E 174°54'1 0.7
2015-Aug-26 18:33S 36°52' E 174°54'5 4.0
2015-Aug-26 17:14S 36°50' E 174°60'3 0.3
2015-Aug-26 06:32S 36°50' E 174°56'4 3.0
2015-Aug-26 05:20S 36°49' E 175°00'6 3.0
2015-Aug-26 03:25S 36°52' E 174°54'1 0.6
2015-Aug-26 01:24S 36°51' E 174°54'1 1.1
2015-Aug-26 00:33S 36°52' E 174°54'4 1.6
2015-Aug-25 22:12S 36°50' E 174°58'4 3.5
2015-Aug-25 21:08S 36°52' E 174°54'4 6.9
2015-Aug-25 20:33S 36°50' E 174°58'0 0.4
2015-Aug-25 19:33S 36°50' E 174°57'3 3.1
2015-Aug-25 18:30S 36°51' E 174°54'6 4.5
2015-Aug-25 17:16S 36°49' E 175°00'3 0.3
2015-Aug-25 06:31S 36°50' E 174°56'3 1.0
2015-Aug-25 03:29S 36°52' E 174°54'2 0.7
2015-Aug-25 01:17S 36°51' E 174°54'2 2.2
2015-Aug-25 00:27S 36°53' E 174°54'5 2.3
2015-Aug-24 22:18S 36°50' E 174°59'4 3.9
2015-Aug-24 21:09S 36°52' E 174°54'4 7.4
2015-Aug-24 20:33S 36°50' E 174°59'4 3.3
2015-Aug-24 19:14S 36°51' E 174°54'0 0.1
2015-Aug-24 18:31S 36°51' E 174°54'4 3.2
2015-Aug-24 17:08S 36°50' E 174°59'2 0.2
2015-Aug-24 06:27S 36°50' E 174°57'2 2.0
2015-Aug-24 05:18S 36°50' E 174°59'5 2.7
2015-Aug-24 03:26S 36°52' E 174°54'1 0.5
2015-Aug-24 01:20S 36°51' E 174°54'2 2.1
2015-Aug-24 00:28S 36°53' E 174°54'5 2.5
2015-Aug-23 22:25S 36°50' E 174°59'5 4.0
2015-Aug-23 21:14S 36°52' E 174°54'1 0.7
2015-Aug-23 19:18S 36°51' E 174°54'  
Track history (hours):
 
Tides and Currents Weather Stations Pressure Air Temp Water Temp Dewpoint Dewpoint Depression Visibility Wind Speed Wind Dir Waves Ship Positions

Seamaster

Last reported at 2015-Sep-02 18:33 UTC. Time now 2015-Sep-02 18:58 UTC.
Position S 36°51' E 174°54'.

Length 44 m.

Type: Passenger vessel. MMSI: 512001027.

Date/timePositionNaut miles runAvg speedWind from/ knotsBaromVisibWave heightAir tempDewpointWater temp
2015-Sep-02 18:33S 36°51' E 174°54'3 2.5
2015-Sep-02 17:17S 36°50' E 174°57'1 0.1
2015-Sep-02 06:31S 36°50' E 174°56'2 1.6
2015-Sep-02 05:26S 36°50' E 174°58'4 2.3
2015-Sep-02 03:33S 36°51' E 174°53'3 1.3
2015-Sep-02 01:31S 36°50' E 174°56'3 2.4
2015-Sep-02 00:25S 36°52' E 174°54'4 1.7
2015-Sep-01 22:09S 36°50' E 174°58'4 3.9
2015-Sep-01 21:10S 36°52' E 174°54'1 0.8
2015-Sep-01 19:20S 36°51' E 174°54'0 0.3
2015-Sep-01 18:33S 36°51' E 174°54'3 2.7
2015-Sep-01 17:19S 36°50' E 174°58'1 0.1
2015-Sep-01 06:31S 36°50' E 174°56'2 1.8
2015-Sep-01 05:16S 36°50' E 174°59'5 2.7
2015-Sep-01 03:33S 36°51' E 174°53'3 1.4
2015-Sep-01 01:33S 36°50' E 174°57'3 2.5
2015-Sep-01 00:26S 36°52' E 174°54'4 2.0
2015-Aug-31 22:25S 36°50' E 174°58'4 3.5
2015-Aug-31 21:15S 36°51' E 174°54'0 0.1
2015-Aug-31 18:34S 36°52' E 174°54'3 0.2
2015-Aug-31 06:29S 36°50' E 174°56'1 0.9
2015-Aug-31 05:11S 36°50' E 174°57'3 2.1
2015-Aug-31 03:33S 36°51' E 174°54'1 0.6
2015-Aug-31 01:20S 36°50' E 174°53'2 2.3
2015-Aug-31 00:26S 36°52' E 174°54'3 0.6
2015-Aug-30 19:33S 36°50' E 174°56'3 2.8
2015-Aug-30 18:33S 36°52' E 174°54'5 3.9
2015-Aug-30 17:19S 36°50' E 174°59'5 0.4
2015-Aug-30 05:23S 36°52' E 174°54'2 1.2
2015-Aug-30 03:30S 36°50' E 174°56'2 2.2
2015-Aug-30 02:33S 36°51' E 174°53'1 0.7
2015-Aug-30 00:33S 36°50' E 174°53'2 2.0
2015-Aug-29 23:25S 36°52' E 174°54'3 1.6
2015-Aug-29 21:32S 36°50' E 174°57'3 3.2
2015-Aug-29 20:28S 36°53' E 174°54'2 0.8
2015-Aug-29 18:16S 36°51' E 174°54'2 0.1
2015-Aug-29 05:27S 36°53' E 174°54'2 0.8
2015-Aug-29 03:17S 36°51' E 174°54'2 2.3
2015-Aug-29 02:29S 36°53' E 174°54'6 4.9
2015-Aug-29 01:11S 36°49' E 175°00'6 9.3
2015-Aug-29 00:33S 36°50' E 174°53'2 2.1
2015-Aug-28 23:33S 36°52' E 174°54'3 1.5
2015-Aug-28 21:34S 36°50' E 174°57'3 2.9
2015-Aug-28 20:32S 36°52' E 174°54'3 1.4
2015-Aug-28 18:33S 36°50' E 174°57'1 0.0
2015-Aug-28 06:30S 36°50' E 174°56'3 2.8
2015-Aug-28 05:22S 36°50' E 174°60'6 3.2
2015-Aug-28 03:32S 36°53' E 174°54'3 1.4
2015-Aug-28 01:33S 36°50' E 174°56'2 1.8
2015-Aug-28 00:24S 36°52' E 174°54'6 3.0
2015-Aug-27 22:27S 36°49' E 175°00'6 4.5
2015-Aug-27 21:10S 36°52' E 174°54'5 7.6
2015-Aug-27 20:33S 36°49' E 174°59'1 1.1
2015-Aug-27 19:33S 36°50' E 174°58'4 3.5
2015-Aug-27 18:33S 36°52' E 174°54'5 3.5
2015-Aug-27 17:11S 36°50' E 174°59'3 0.3
2015-Aug-27 06:33S 36°50' E 174°55'3 2.2
2015-Aug-27 05:15S 36°50' E 174°59'5 2.8
2015-Aug-27 03:29S 36°53' E 174°54'2 0.8
2015-Aug-27 01:19S 36°51' E 174°54'2 2.2
2015-Aug-27 00:31S 36°53' E 174°54'5 2.3
2015-Aug-26 22:19S 36°50' E 174°59'5 4.2
2015-Aug-26 21:11S 36°52' E 174°54'5 7.5
2015-Aug-26 20:32S 36°49' E 174°59'5 3.7
2015-Aug-26 19:14S 36°51' E 174°54'1 0.7
2015-Aug-26 18:33S 36°52' E 174°54'5 4.0
2015-Aug-26 17:14S 36°50' E 174°60'3 0.3
2015-Aug-26 06:32S 36°50' E 174°56'4 3.0
2015-Aug-26 05:20S 36°49' E 175°00'6 3.0
2015-Aug-26 03:25S 36°52' E 174°54'1 0.6
2015-Aug-26 01:24S 36°51' E 174°54'1 1.1
2015-Aug-26 00:33S 36°52' E 174°54'4 1.6
2015-Aug-25 22:12S 36°50' E 174°58'4 3.5
2015-Aug-25 21:08S 36°52' E 174°54'4 6.9
2015-Aug-25 20:33S 36°50' E 174°58'0 0.4
2015-Aug-25 19:33S 36°50' E 174°57'3 3.1
2015-Aug-25 18:30S 36°51' E 174°54'6 4.5
2015-Aug-25 17:16S 36°49' E 175°00'3 0.3
2015-Aug-25 06:31S 36°50' E 174°56'3 1.0
2015-Aug-25 03:29S 36°52' E 174°54'2 0.7
2015-Aug-25 01:17S 36°51' E 174°54'2 2.2
2015-Aug-25 00:27S 36°53' E 174°54'5 2.3
2015-Aug-24 22:18S 36°50' E 174°59'4 3.9
2015-Aug-24 21:09S 36°52' E 174°54'4 7.4
2015-Aug-24 20:33S 36°50' E 174°59'4 3.3
2015-Aug-24 19:14S 36°51' E 174°54'0 0.1
2015-Aug-24 18:31S 36°51' E 174°54'4 3.2
2015-Aug-24 17:08S 36°50' E 174°59'2 0.2
2015-Aug-24 06:27S 36°50' E 174°57'2 2.0
2015-Aug-24 05:18S 36°50' E 174°59'5 2.7
2015-Aug-24 03:26S 36°52' E 174°54'1 0.5
2015-Aug-24 01:20S 36°51' E 174°54'2 2.1
2015-Aug-24 00:28S 36°53' E 174°54'5 2.5
2015-Aug-23 22:25S 36°50' E 174°59'5 4.0
2015-Aug-23 21:14S 36°52' E 174°54'1 0.7
2015-Aug-23 19:18S 36°51' E 174°54'  

Dump ship's entire track history